Time;durP1;ratioP1;P1;durP2;ratioP2;P2;SDS_P1;SDS_P2;PMS_P1;PMS_P2;Temp;Humidity;BMP_temperature;BMP_pressure;BME280_temperature;BME280_humidity;BME280_pressure;Samples;Min_cycle;Max_cycle;Signal;HPM_P1;HPM_P2
2021/09/28 00:01:41;;;;;;;1.17;0.47;;;15.20;99.90;;;;;;5094066;28;20493;-69
2021/09/28 00:04:07;;;;;;;2.25;0.80;;;15.30;99.90;;;;;;5093994;28;20035;-69
2021/09/28 00:06:33;;;;;;;2.13;0.60;;;15.30;99.90;;;;;;5093819;28;20047;-69
2021/09/28 00:08:59;;;;;;;3.95;0.80;;;15.20;99.90;;;;;;5093775;28;20115;-69
2021/09/28 00:11:25;;;;;;;4.05;0.77;;;15.10;99.90;;;;;;5093679;28;20161;-69
2021/09/28 00:13:50;;;;;;;4.60;0.90;;;15.10;99.90;;;;;;5093831;28;20161;-69
2021/09/28 00:16:16;;;;;;;6.32;1.80;;;15.00;99.90;;;;;;5091993;28;20051;-69
2021/09/28 00:18:42;;;;;;;2.42;0.73;;;15.10;99.90;;;;;;5093529;28;20034;-69
2021/09/28 00:21:08;;;;;;;4.65;0.90;;;15.10;99.90;;;;;;5093472;28;20485;-69
2021/09/28 00:23:34;;;;;;;3.08;0.70;;;15.10;99.90;;;;;;5073573;28;20562;-69
2021/09/28 00:26:00;;;;;;;3.97;1.02;;;15.20;99.90;;;;;;5091380;28;20481;-69
2021/09/28 00:28:28;;;;;;;3.53;0.90;;;15.10;99.90;;;;;;5093266;28;20038;-69
2021/09/28 00:30:55;;;;;;;4.68;1.80;;;15.20;99.90;;;;;;5093564;28;20035;-69
2021/09/28 00:33:21;;;;;;;5.82;1.30;;;15.10;99.90;;;;;;5093554;28;20028;-69
2021/09/28 00:35:47;;;;;;;4.30;1.30;;;15.00;99.90;;;;;;5093401;28;20059;-68
2021/09/28 00:38:13;;;;;;;6.47;1.30;;;14.90;99.90;;;;;;5093240;28;20058;-69
2021/09/28 00:40:39;;;;;;;4.68;1.00;;;14.90;99.90;;;;;;5093081;28;20024;-69
2021/09/28 00:43:04;;;;;;;3.45;1.15;;;14.90;99.90;;;;;;5093088;28;20032;-69
2021/09/28 00:45:33;;;;;;;3.97;0.82;;;15.00;99.90;;;;;;5093147;28;20024;-69
2021/09/28 00:47:59;;;;;;;4.93;1.50;;;15.00;99.90;;;;;;5092886;28;20503;-69
2021/09/28 00:50:26;;;;;;;3.58;1.20;;;14.90;99.90;;;;;;5091574;28;20059;-69
2021/09/28 00:52:52;;;;;;;4.57;1.25;;;14.90;99.90;;;;;;5091865;28;20039;-69
2021/09/28 00:55:27;;;;;;;6.40;1.90;;;14.80;99.90;;;;;;5091947;28;20477;-69
2021/09/28 00:57:57;;;;;;;7.55;1.90;;;14.90;99.90;;;;;;5091706;28;20054;-69
2021/09/28 01:00:24;;;;;;;4.03;1.00;;;14.80;99.90;;;;;;5091436;28;20465;-69
2021/09/28 01:02:52;;;;;;;6.47;1.80;;;14.80;99.90;;;;;;5091441;28;20036;-69
2021/09/28 01:05:18;;;;;;;4.07;1.52;;;14.80;99.90;;;;;;5091458;28;20032;-69
2021/09/28 01:07:44;;;;;;;5.65;1.45;;;14.70;99.90;;;;;;5093013;28;20062;-69
2021/09/28 01:10:10;;;;;;;5.07;1.20;;;14.70;99.90;;;;;;5093005;28;20028;-69
2021/09/28 01:12:35;;;;;;;7.55;1.98;;;14.60;99.90;;;;;;5092856;28;20495;-69
2021/09/28 01:15:02;;;;;;;5.20;1.42;;;14.50;99.90;;;;;;5092777;28;20031;-69
2021/09/28 01:17:28;;;;;;;4.75;1.30;;;14.50;99.90;;;;;;5092429;28;20067;-69
2021/09/28 01:19:54;;;;;;;6.85;1.30;;;14.50;99.90;;;;;;5092334;28;20489;-69
2021/09/28 01:22:23;;;;;;;6.00;1.38;;;14.40;99.90;;;;;;5092672;28;20071;-69
2021/09/28 01:24:49;;;;;;;6.97;2.63;;;14.40;99.90;;;;;;5091368;28;20485;-69
2021/09/28 01:27:16;;;;;;;6.50;1.50;;;14.30;99.90;;;;;;5091256;28;20042;-69
2021/09/28 01:29:43;;;;;;;9.32;1.90;;;14.30;99.90;;;;;;5091115;28;20089;-69
2021/09/28 01:32:09;;;;;;;3.15;1.42;;;14.30;99.90;;;;;;5091206;28;20032;-69
2021/09/28 01:34:38;;;;;;;5.63;2.03;;;14.10;99.90;;;;;;5092539;28;20024;-69
2021/09/28 01:37:05;;;;;;;6.22;2.38;;;14.10;99.90;;;;;;5089311;28;20111;-69
2021/09/28 01:39:31;;;;;;;5.40;2.08;;;14.00;99.90;;;;;;5091028;28;20089;-69
2021/09/28 01:41:57;;;;;;;6.45;1.88;;;14.00;99.90;;;;;;5092299;28;20038;-69
2021/09/28 01:44:27;;;;;;;7.25;1.95;;;13.90;99.90;;;;;;5090907;28;20024;-69
2021/09/28 01:46:53;;;;;;;5.57;1.93;;;13.90;99.90;;;;;;5074342;28;20119;-69
2021/09/28 01:49:20;;;;;;;9.80;2.38;;;13.90;99.90;;;;;;5090721;28;20533;-69
2021/09/28 01:51:47;;;;;;;4.47;1.73;;;14.00;99.90;;;;;;5095292;28;20028;-69
2021/09/28 01:54:12;;;;;;;6.72;2.15;;;14.10;99.90;;;;;;5095110;28;20032;-69
2021/09/28 01:56:38;;;;;;;6.30;1.83;;;14.00;99.90;;;;;;5095172;28;20032;-69
2021/09/28 01:59:06;;;;;;;6.38;1.60;;;14.00;99.90;;;;;;5096237;28;20473;-69
2021/09/28 02:01:32;;;;;;;8.45;2.10;;;14.00;99.90;;;;;;5095275;28;20029;-69
2021/09/28 02:03:58;;;;;;;10.75;2.15;;;13.90;99.90;;;;;;5095749;28;20409;-68
2021/09/28 02:06:25;;;;;;;5.38;2.00;;;13.80;99.90;;;;;;5094798;28;20043;-68
2021/09/28 02:08:52;;;;;;;4.43;1.80;;;13.80;99.90;;;;;;5078096;28;20032;-69
2021/09/28 02:11:20;;;;;;;5.43;1.80;;;13.80;99.90;;;;;;5095867;28;20381;-69
2021/09/28 02:13:45;;;;;;;6.40;1.80;;;13.80;99.90;;;;;;5094918;28;20032;-69
2021/09/28 02:16:11;;;;;;;7.40;1.73;;;13.70;99.90;;;;;;5095753;28;20040;-70
2021/09/28 02:18:37;;;;;;;7.75;2.08;;;13.70;99.90;;;;;;5094576;28;20028;-69
2021/09/28 02:21:03;;;;;;;5.93;1.98;;;13.40;99.90;;;;;;5095642;28;20445;-69
2021/09/28 02:23:29;;;;;;;4.22;1.65;;;13.30;99.90;;;;;;5077664;28;20430;-69
2021/09/28 02:25:56;;;;;;;6.97;1.88;;;13.30;99.90;;;;;;5095574;28;20497;-69
2021/09/28 02:28:22;;;;;;;9.68;3.10;;;13.20;99.90;;;;;;5095479;28;20055;-69
2021/09/28 02:30:48;;;;;;;7.05;1.90;;;13.20;99.90;;;;;;5095873;28;20500;-69
2021/09/28 02:33:14;;;;;;;10.20;2.08;;;13.10;99.90;;;;;;5094294;28;20114;-69
2021/09/28 02:35:39;;;;;;;7.00;1.67;;;13.10;99.90;;;;;;5095682;28;20074;-69
2021/09/28 02:38:05;;;;;;;7.03;1.83;;;13.20;99.90;;;;;;5095750;28;20036;-69
2021/09/28 02:40:31;;;;;;;4.78;1.73;;;13.30;99.90;;;;;;5094416;28;20028;-69
2021/09/28 02:42:57;;;;;;;6.57;1.70;;;13.30;99.90;;;;;;5095673;28;20028;-69
2021/09/28 02:45:23;;;;;;;6.97;1.80;;;13.30;99.90;;;;;;5094476;28;20058;-69
2021/09/28 02:47:49;;;;;;;4.95;1.55;;;13.30;99.90;;;;;;5095461;28;20114;-69
2021/09/28 02:50:15;;;;;;;5.50;1.85;;;13.30;99.90;;;;;;5095507;28;20426;-69
2021/09/28 02:52:41;;;;;;;7.80;1.92;;;13.30;99.90;;;;;;5095606;28;20365;-68
2021/09/28 02:55:07;;;;;;;5.70;1.60;;;13.30;99.90;;;;;;5076889;28;20039;-68
2021/09/28 02:57:33;;;;;;;8.23;1.83;;;13.40;99.90;;;;;;5094237;28;20027;-69
2021/09/28 02:59:58;;;;;;;7.68;2.10;;;13.40;99.90;;;;;;5095081;28;20032;-69
2021/09/28 03:02:24;;;;;;;6.40;1.77;;;13.40;99.90;;;;;;5093729;28;20039;-69
2021/09/28 03:04:50;;;;;;;7.55;1.77;;;13.50;99.90;;;;;;5094554;28;20032;-69
2021/09/28 03:07:16;;;;;;;5.22;1.58;;;13.50;99.90;;;;;;5095023;28;20040;-70
2021/09/28 03:09:41;;;;;;;5.68;1.17;;;13.50;99.90;;;;;;5093809;28;20078;-69
2021/09/28 03:12:08;;;;;;;6.15;2.20;;;13.40;99.90;;;;;;5095038;28;20093;-70
2021/09/28 03:14:35;;;;;;;3.67;1.35;;;13.50;99.90;;;;;;5094805;28;20028;-70
2021/09/28 03:17:01;;;;;;;4.07;1.60;;;13.60;99.90;;;;;;5093412;28;20047;-70
2021/09/28 03:19:29;;;;;;;12.70;1.90;;;13.60;99.90;;;;;;5094907;28;20481;-70
2021/09/28 03:21:55;;;;;;;3.88;1.35;;;13.50;99.90;;;;;;5093650;28;20078;-70
2021/09/28 03:24:21;;;;;;;6.88;1.65;;;13.50;99.90;;;;;;5093392;28;20032;-69
2021/09/28 03:26:47;;;;;;;5.10;1.55;;;13.50;99.90;;;;;;5093219;28;20036;-70
2021/09/28 03:29:13;;;;;;;5.53;1.52;;;13.40;99.90;;;;;;5094686;28;20027;-69
2021/09/28 03:31:39;;;;;;;6.07;1.88;;;13.40;99.90;;;;;;5094541;28;20069;-69
2021/09/28 03:34:05;;;;;;;4.40;1.50;;;13.40;99.90;;;;;;5086022;28;20119;-69
2021/09/28 03:36:31;;;;;;;4.80;1.38;;;13.30;99.90;;;;;;5073844;28;20388;-69
2021/09/28 03:38:57;;;;;;;5.35;1.65;;;13.20;99.90;;;;;;5074622;28;20036;-70
2021/09/28 03:41:23;;;;;;;4.53;1.63;;;13.30;99.90;;;;;;5074038;28;20082;-73
2021/09/28 03:43:49;;;;;;;12.80;3.08;;;13.20;99.90;;;;;;5073506;28;20043;-71
2021/09/28 03:46:15;;;;;;;9.80;2.30;;;13.30;99.90;;;;;;5092217;28;20111;-73
2021/09/28 03:48:41;;;;;;;8.20;2.20;;;13.30;99.90;;;;;;5081321;28;20669;-72
2021/09/28 03:51:09;;;;;;;7.78;2.03;;;13.40;99.90;;;;;;5082650;28;20024;-72
2021/09/28 03:53:35;;;;;;;13.65;2.80;;;13.50;99.90;;;;;;5084322;28;20044;-73
2021/09/28 03:56:01;;;;;;;8.82;2.35;;;13.40;99.90;;;;;;5090384;28;20036;-72
2021/09/28 03:58:27;;;;;;;4.93;2.30;;;13.20;99.90;;;;;;5092149;28;20040;-71
2021/09/28 04:00:53;;;;;;;4.65;2.08;;;13.10;99.90;;;;;;5090263;28;20030;-73
2021/09/28 04:03:18;;;;;;;12.07;2.40;;;13.00;99.90;;;;;;5075903;28;20031;-73
2021/09/28 04:05:44;;;;;;;7.20;2.67;;;13.00;99.90;;;;;;5092213;28;20392;-73
2021/09/28 04:08:10;;;;;;;6.40;2.53;;;13.10;99.90;;;;;;5078790;28;20033;-72
2021/09/28 04:10:37;;;;;;;7.75;2.88;;;13.00;99.90;;;;;;5072337;28;20525;-71
2021/09/28 04:13:09;;;;;;;8.27;2.90;;;13.10;99.90;;;;;;5088428;28;20035;-72
2021/09/28 04:15:41;;;;;;;8.40;2.70;;;13.10;99.90;;;;;;5071741;28;20037;-75
2021/09/28 04:18:12;;;;;;;7.10;2.50;;;13.10;99.90;;;;;;5072003;28;20112;-74
2021/09/28 04:20:41;;;;;;;5.10;2.40;;;13.10;99.90;;;;;;5073371;28;20037;-73
2021/09/28 04:23:09;;;;;;;9.85;2.58;;;13.10;99.90;;;;;;5055386;28;20489;-71
2021/09/28 04:25:35;;;;;;;9.07;3.10;;;12.80;99.90;;;;;;5073114;28;20038;-73
2021/09/28 04:28:02;;;;;;;10.35;2.83;;;12.50;99.90;;;;;;5071679;28;20025;-73
2021/09/28 04:30:28;;;;;;;10.43;3.20;;;12.70;99.90;;;;;;5073221;28;20040;-73
2021/09/28 04:32:55;;;;;;;6.57;2.85;;;12.70;99.90;;;;;;5072734;28;20031;-72
2021/09/28 04:35:20;;;;;;;8.80;3.25;;;12.80;99.90;;;;;;5072909;28;20033;-70
2021/09/28 04:37:46;;;;;;;62.28;35.92;;;12.90;99.90;;;;;;5084352;28;20043;-71
2021/09/28 04:40:13;;;;;;;44.13;25.40;;;13.40;99.90;;;;;;5083646;28;20024;-71
2021/09/28 04:42:40;;;;;;;10.82;5.05;;;13.60;99.90;;;;;;5075666;28;20032;-71
2021/09/28 04:45:07;;;;;;;9.85;4.22;;;13.40;99.90;;;;;;5081581;28;20039;-71
2021/09/28 04:47:33;;;;;;;7.88;4.00;;;13.40;99.90;;;;;;5081168;28;20036;-71
2021/09/28 04:49:59;;;;;;;10.48;4.13;;;13.40;99.90;;;;;;5091298;28;20173;-71
2021/09/28 04:52:25;;;;;;;15.48;4.30;;;13.50;99.90;;;;;;5088552;28;20532;-72
2021/09/28 04:54:51;;;;;;;11.93;3.60;;;13.40;99.90;;;;;;5092655;28;20177;-72
2021/09/28 04:57:17;;;;;;;11.88;4.57;;;13.30;99.90;;;;;;5091494;28;20054;-71
2021/09/28 04:59:42;;;;;;;11.43;5.93;;;13.20;99.90;;;;;;5092625;28;20032;-71
2021/09/28 05:02:09;;;;;;;28.50;10.98;;;13.10;99.90;;;;;;5092890;28;20500;-71
2021/09/28 05:04:35;;;;;;;10.93;4.40;;;13.10;99.90;;;;;;5091648;28;20039;-72
2021/09/28 05:07:00;;;;;;;20.35;9.82;;;13.00;99.90;;;;;;5092411;28;20036;-72
2021/09/28 05:09:27;;;;;;;13.90;4.65;;;13.00;99.90;;;;;;5091599;28;20051;-72
2021/09/28 05:11:56;;;;;;;10.85;4.05;;;12.90;99.90;;;;;;5091103;28;20024;-72
2021/09/28 05:14:21;;;;;;;10.68;2.72;;;13.00;99.90;;;;;;5092543;28;20032;-62
2021/09/28 05:16:47;;;;;;;7.85;3.08;;;12.70;99.90;;;;;;5081545;28;20045;-80
2021/09/28 05:19:13;;;;;;;6.38;3.17;;;12.70;99.90;;;;;;5069722;28;20142;-82
2021/09/28 05:21:39;;;;;;;9.05;2.72;;;12.50;99.90;;;;;;5071693;28;20047;-81
2021/09/28 05:24:07;;;;;;;8.75;2.40;;;12.30;99.90;;;;;;5071679;28;20039;-82
2021/09/28 05:26:33;;;;;;;7.72;2.20;;;12.50;99.90;;;;;;5087403;28;20497;-83
2021/09/28 05:28:59;;;;;;;6.13;1.92;;;12.70;99.90;;;;;;5072081;28;20078;-82
2021/09/28 05:31:24;;;;;;;10.02;2.00;;;12.80;99.90;;;;;;5072126;28;20034;-83
2021/09/28 05:33:50;;;;;;;5.07;1.77;;;12.80;99.90;;;;;;5072150;28;20077;-83
2021/09/28 05:36:16;;;;;;;5.78;2.40;;;12.90;99.90;;;;;;5072419;28;20033;-82
2021/09/28 05:38:42;;;;;;;8.40;3.28;;;12.90;99.90;;;;;;5071333;28;20020;-82
2021/09/28 05:41:09;;;;;;;5.80;2.10;;;12.80;99.90;;;;;;5072427;28;20047;-81
2021/09/28 05:43:36;;;;;;;5.05;2.17;;;12.70;99.90;;;;;;5071295;28;20036;-81
2021/09/28 05:46:02;;;;;;;5.57;2.25;;;12.60;99.90;;;;;;5072398;28;20074;-81
2021/09/28 05:48:28;;;;;;;8.82;2.75;;;12.60;99.90;;;;;;5071505;28;20036;-81
2021/09/28 05:50:54;;;;;;;7.57;2.42;;;12.60;99.90;;;;;;5072182;28;20024;-82
2021/09/28 05:53:20;;;;;;;7.32;2.42;;;12.70;99.90;;;;;;5072969;28;20036;-81
2021/09/28 05:55:46;;;;;;;8.73;2.63;;;12.60;99.90;;;;;;5071455;28;20435;-81
2021/09/28 05:58:15;;;;;;;10.63;2.33;;;12.60;99.90;;;;;;5071226;28;20071;-82
2021/09/28 06:00:41;;;;;;;5.68;2.25;;;12.60;99.90;;;;;;5073014;28;20040;-83
2021/09/28 06:03:07;;;;;;;18.98;4.47;;;12.60;99.90;;;;;;5073171;28;20024;-82
2021/09/28 06:05:35;;;;;;;11.68;3.22;;;12.70;99.90;;;;;;5086573;28;20029;-81
2021/09/28 06:08:02;;;;;;;5.90;2.92;;;12.70;99.90;;;;;;5092212;28;20016;-83
2021/09/28 06:10:27;;;;;;;10.98;3.05;;;12.80;99.90;;;;;;5077375;28;20032;-83
2021/09/28 06:12:53;;;;;;;12.25;3.83;;;12.80;99.90;;;;;;5093024;28;20092;-83
2021/09/28 06:15:19;;;;;;;9.63;4.00;;;12.80;99.90;;;;;;5093786;28;20025;-83
2021/09/28 06:17:45;;;;;;;8.10;2.72;;;12.90;99.90;;;;;;5092751;28;20049;-83
2021/09/28 06:20:11;;;;;;;8.20;2.80;;;13.00;99.90;;;;;;5091686;28;20068;-82
2021/09/28 06:22:38;;;;;;;13.57;3.03;;;13.00;99.90;;;;;;5091986;28;20033;-82
2021/09/28 06:25:05;;;;;;;7.40;3.38;;;12.80;99.90;;;;;;5085800;28;20036;-83
2021/09/28 06:27:31;;;;;;;11.13;3.50;;;12.80;99.90;;;;;;5077336;28;20453;-83
2021/09/28 06:29:56;;;;;;;9.75;3.50;;;12.90;99.90;;;;;;5072152;28;20028;-83
2021/09/28 06:32:23;;;;;;;10.88;3.65;;;12.90;99.90;;;;;;5072197;28;20098;-83
2021/09/28 06:34:50;;;;;;;9.02;3.40;;;12.90;99.90;;;;;;5071190;28;20036;-83
2021/09/28 06:37:16;;;;;;;12.60;4.63;;;13.00;99.90;;;;;;5072718;28;20090;-84
2021/09/28 06:39:42;;;;;;;9.38;4.85;;;13.00;99.90;;;;;;5075573;28;20028;-80
2021/09/28 06:42:08;;;;;;;7.20;3.20;;;13.10;99.90;;;;;;5075147;28;20503;-80
2021/09/28 06:44:34;;;;;;;9.77;3.30;;;13.10;99.90;;;;;;5074515;28;20078;-81
2021/09/28 06:47:00;;;;;;;9.75;3.15;;;13.20;99.90;;;;;;5074272;28;20085;-80
2021/09/28 06:49:26;;;;;;;5.82;3.45;;;13.10;99.90;;;;;;5057193;28;20515;-80
2021/09/28 06:51:52;;;;;;;8.63;3.40;;;13.10;99.90;;;;;;5075057;28;20044;-85
2021/09/28 06:54:17;;;;;;;7.38;3.08;;;13.20;99.90;;;;;;5074953;28;20040;-80
2021/09/28 06:56:43;;;;;;;10.43;3.33;;;13.30;99.90;;;;;;5075199;28;20033;-82
2021/09/28 06:59:10;;;;;;;11.18;3.75;;;13.30;99.90;;;;;;5073501;28;20044;-84
2021/09/28 07:01:37;;;;;;;14.00;3.22;;;13.50;99.90;;;;;;5075052;28;20025;-84
2021/09/28 07:04:03;;;;;;;8.00;2.85;;;13.50;99.90;;;;;;5074560;28;20080;-83
2021/09/28 12:46:51;;;;;;;5.78;1.10;;;24.30;82.70;;;;;;5067369;28;20460;-70
2021/09/28 12:49:32;;;;;;;4.25;1.00;;;24.00;85.20;;;;;;5091167;28;20036;-70
2021/09/28 12:52:00;;;;;;;3.30;0.70;;;24.10;83.10;;;;;;5093341;28;20085;-70
2021/09/28 12:54:28;;;;;;;3.38;0.65;;;23.10;85.10;;;;;;5091946;28;20028;-70
2021/09/28 12:56:54;;;;;;;4.63;1.02;;;22.10;86.00;;;;;;5091941;28;20119;-70
2021/09/28 12:59:20;;;;;;;3.03;0.75;;;23.10;83.00;;;;;;5092524;28;20830;-70
2021/09/28 13:01:50;;;;;;;4.72;0.75;;;22.70;85.60;;;;;;5092609;28;20477;-70
2021/09/28 13:04:17;;;;;;;4.00;1.35;;;23.20;84.80;;;;;;5074309;28;20392;-69
2021/09/28 13:06:55;;;;;;;6.20;1.35;;;22.10;87.00;;;;;;5092679;28;20035;-70
2021/09/28 13:09:21;;;;;;;4.82;1.42;;;21.30;89.20;;;;;;5091000;28;20395;-69
2021/09/28 13:11:50;;;;;;;4.35;0.80;;;21.70;90.40;;;;;;5092669;28;20024;-69
2021/09/28 13:14:15;;;;;;;5.60;0.93;;;22.00;89.20;;;;;;5092387;28;20035;-70
2021/09/28 13:16:41;;;;;;;8.68;1.10;;;22.40;89.30;;;;;;5091580;28;20051;-69
2021/09/28 13:19:07;;;;;;;6.60;1.60;;;22.40;88.40;;;;;;5091346;28;20024;-69
2021/09/28 13:21:33;;;;;;;4.82;1.20;;;21.90;88.40;;;;;;5091439;28;20189;-70
2021/09/28 13:24:00;;;;;;;3.65;0.80;;;21.60;90.00;;;;;;5092451;28;20531;-70
2021/09/28 13:26:26;;;;;;;5.55;2.15;;;21.70;90.10;;;;;;5091024;28;20036;-70
2021/09/28 13:28:52;;;;;;;5.03;1.33;;;21.40;89.70;;;;;;5091216;28;20035;-70
2021/09/28 13:31:17;;;;;;;4.15;1.33;;;21.50;90.50;;;;;;5091186;28;20031;-70
2021/09/28 13:33:43;;;;;;;6.45;1.50;;;21.80;90.90;;;;;;5092241;28;20031;-70
2021/09/28 13:36:21;;;;;;;6.00;1.20;;;22.50;90.30;;;;;;5075499;28;20067;-70
2021/09/28 13:38:47;;;;;;;3.53;0.98;;;22.40;90.10;;;;;;5086586;28;20120;-71
2021/09/28 13:41:13;;;;;;;7.53;1.00;;;22.80;89.10;;;;;;5074259;28;20062;-71
2021/09/28 13:43:38;;;;;;;4.60;0.93;;;22.70;88.30;;;;;;5091963;28;20120;-71
2021/09/28 13:46:05;;;;;;;4.38;1.00;;;22.90;88.80;;;;;;5093073;28;20040;-71
2021/09/28 13:48:30;;;;;;;5.75;1.05;;;22.30;88.90;;;;;;5098905;28;20512;-71
2021/09/28 13:50:56;;;;;;;3.55;0.85;;;22.30;88.90;;;;;;5098807;28;20119;-71
2021/09/28 13:53:22;;;;;;;7.28;1.30;;;22.20;89.40;;;;;;5097219;28;20081;-70
2021/09/28 13:55:48;;;;;;;5.80;0.90;;;21.70;90.70;;;;;;5098832;28;20094;-71
2021/09/28 13:58:17;;;;;;;6.35;1.08;;;21.80;90.30;;;;;;5097319;28;20036;-71
2021/09/28 14:00:42;;;;;;;3.38;0.90;;;22.90;88.90;;;;;;5097372;28;20035;-70
2021/09/28 14:03:09;;;;;;;6.57;1.23;;;22.90;89.10;;;;;;5097067;28;20024;-71
2021/09/28 14:05:35;;;;;;;2.33;0.80;;;22.90;88.20;;;;;;5097322;28;20055;-70
2021/09/28 14:08:00;;;;;;;7.05;1.00;;;23.40;87.80;;;;;;5080816;28;20062;-71
2021/09/28 14:10:26;;;;;;;5.35;1.13;;;22.70;89.40;;;;;;5098500;28;20114;-70
2021/09/28 14:12:53;;;;;;;6.75;1.10;;;22.20;90.40;;;;;;5097803;28;20097;-70
2021/09/28 14:15:19;;;;;;;3.55;1.02;;;22.60;90.00;;;;;;5097518;28;20443;-71
2021/09/28 14:17:45;;;;;;;7.72;1.00;;;22.40;91.30;;;;;;5080629;28;20024;-71
2021/09/28 14:20:11;;;;;;;3.95;0.90;;;22.90;90.20;;;;;;5097267;28;20024;-71
2021/09/28 14:22:37;;;;;;;3.88;1.23;;;22.50;90.90;;;;;;5097348;28;20043;-71
2021/09/28 14:25:05;;;;;;;3.45;0.93;;;23.20;90.10;;;;;;5097243;28;20032;-71
2021/09/28 14:27:32;;;;;;;3.55;0.93;;;22.60;89.90;;;;;;5098651;28;20032;-71
2021/09/28 14:29:57;;;;;;;3.75;1.05;;;21.40;91.10;;;;;;5098648;28;20060;-70
2021/09/28 14:32:23;;;;;;;8.68;1.45;;;21.60;91.30;;;;;;5098486;28;20060;-70
2021/09/28 14:34:49;;;;;;;6.03;1.10;;;22.40;90.60;;;;;;5098542;28;20082;-70
2021/09/28 14:37:16;;;;;;;3.10;1.15;;;23.10;90.10;;;;;;5096920;28;20031;-70
2021/09/28 14:39:42;;;;;;;3.35;0.80;;;23.30;90.30;;;;;;5097499;28;20127;-70
2021/09/28 14:42:08;;;;;;;7.53;1.10;;;23.30;88.30;;;;;;5096957;28;20032;-71
2021/09/28 14:44:36;;;;;;;5.85;0.98;;;23.40;89.50;;;;;;5097372;28;20028;-70
2021/09/28 14:47:02;;;;;;;3.88;1.00;;;23.60;87.20;;;;;;5097994;28;20496;-70
2021/09/28 14:49:28;;;;;;;5.28;0.85;;;23.10;88.60;;;;;;5097980;28;20561;-71
2021/09/28 14:51:54;;;;;;;5.30;1.05;;;22.70;89.40;;;;;;5098369;28;20161;-71
2021/09/28 14:54:20;;;;;;;5.65;1.50;;;23.60;89.80;;;;;;5097669;28;20393;-70
2021/09/28 14:56:45;;;;;;;3.40;0.85;;;23.40;87.70;;;;;;5096814;28;20115;-71
2021/09/28 14:59:11;;;;;;;6.03;0.80;;;24.10;88.30;;;;;;5094997;28;20035;-70
2021/09/28 15:01:38;;;;;;;3.47;0.70;;;22.50;90.40;;;;;;5095130;28;20476;-71
2021/09/28 15:04:04;;;;;;;4.13;0.73;;;23.30;88.60;;;;;;5094736;28;20405;-71
2021/09/28 15:06:31;;;;;;;9.10;1.00;;;24.10;87.30;;;;;;5093617;28;20024;-69
2021/09/28 15:08:57;;;;;;;4.38;0.82;;;24.60;86.40;;;;;;5094558;28;20188;-70
2021/09/28 15:11:24;;;;;;;2.78;0.98;;;25.10;84.00;;;;;;5093330;28;20028;-70
2021/09/28 15:13:50;;;;;;;4.72;0.82;;;25.20;84.40;;;;;;5093872;28;20028;-71
2021/09/28 15:16:16;;;;;;;4.35;1.52;;;25.30;85.30;;;;;;5094790;28;20195;-70
2021/09/28 15:18:42;;;;;;;5.95;1.10;;;24.10;84.90;;;;;;5094917;28;20426;-70
2021/09/28 15:21:08;;;;;;;5.03;2.03;;;23.10;86.50;;;;;;5094534;28;20115;-70
2021/09/28 15:23:34;;;;;;;3.85;1.13;;;22.60;90.00;;;;;;5076642;28;20077;-70
2021/09/28 15:26:00;;;;;;;5.95;1.42;;;21.70;90.30;;;;;;5094577;28;20028;-70
2021/09/28 15:28:26;;;;;;;4.32;1.00;;;22.10;90.60;;;;;;5094184;28;20114;-70
2021/09/28 15:30:52;;;;;;;4.32;0.75;;;22.60;90.80;;;;;;5092777;28;20127;-70
2021/09/28 15:33:20;;;;;;;5.75;1.00;;;23.50;89.00;;;;;;5094475;28;20036;-70
2021/09/28 15:35:46;;;;;;;3.95;0.82;;;23.60;87.70;;;;;;5092867;28;20443;-70
2021/09/28 15:38:51;;;;;;;7.85;1.75;;;22.70;89.60;;;;;;5091190;28;20421;-70
2021/09/28 15:41:21;;;;;;;3.95;0.80;;;23.00;89.60;;;;;;5088959;28;20381;-70
2021/09/28 15:43:48;;;;;;;4.63;1.73;;;21.80;90.00;;;;;;5074445;28;20085;-73
2021/09/28 15:46:18;;;;;;;3.80;0.90;;;21.40;90.90;;;;;;5073739;28;20044;-73
2021/09/28 15:48:44;;;;;;;6.05;0.80;;;21.30;91.50;;;;;;5074131;28;20568;-71
2021/09/28 15:51:12;;;;;;;4.43;0.85;;;21.10;91.70;;;;;;5074142;28;20040;-74
2021/09/28 15:53:39;;;;;;;6.53;1.10;;;20.40;92.20;;;;;;5072498;28;20548;-74
2021/09/28 15:56:07;;;;;;;8.15;1.38;;;20.70;93.00;;;;;;5072171;28;20037;-78
2021/09/28 15:58:36;;;;;;;3.50;0.85;;;20.60;93.60;;;;;;5072569;28;20024;-69
2021/09/28 16:01:03;;;;;;;3.65;0.80;;;20.50;93.70;;;;;;5073734;28;20066;-69
2021/09/28 16:03:30;;;;;;;8.05;1.10;;;20.30;94.20;;;;;;5072232;28;20657;-70
2021/09/28 16:05:58;;;;;;;2.47;0.90;;;20.40;94.10;;;;;;5072137;28;20037;-71
2021/09/28 16:08:26;;;;;;;3.83;1.30;;;20.40;94.40;;;;;;5073306;28;20024;-71
2021/09/28 16:10:56;;;;;;;5.05;1.30;;;20.40;94.10;;;;;;5071905;28;20036;-73
2021/09/28 16:13:28;;;;;;;19.48;9.60;;;20.20;94.80;;;;;;5074651;28;20032;-71
2021/09/28 16:15:57;;;;;;;5.25;1.70;;;20.30;94.90;;;;;;5092206;28;20054;-71
2021/09/28 16:18:23;;;;;;;4.78;1.83;;;20.30;94.70;;;;;;5093292;28;20369;-72
2021/09/28 16:20:49;;;;;;;4.25;1.17;;;20.20;95.20;;;;;;5109158;28;20039;-72
2021/09/28 16:23:15;;;;;;;3.78;1.20;;;20.10;95.60;;;;;;5092085;28;20044;-72
2021/09/28 16:25:42;;;;;;;6.57;1.20;;;19.90;95.80;;;;;;5093201;28;20389;-72
2021/09/28 16:28:09;;;;;;;3.90;1.30;;;19.50;96.10;;;;;;5093128;28;20028;-72
2021/09/28 16:30:35;;;;;;;6.22;2.05;;;19.30;97.00;;;;;;5093223;28;20032;-72
2021/09/28 16:33:01;;;;;;;8.30;2.20;;;19.20;98.50;;;;;;5092279;28;20123;-72
2021/09/28 16:35:27;;;;;;;6.47;2.38;;;19.30;97.40;;;;;;5091725;28;20085;-72
2021/09/28 16:37:53;;;;;;;5.68;1.63;;;19.40;98.10;;;;;;5093383;28;20028;-72
2021/09/28 16:40:19;;;;;;;6.97;1.70;;;19.20;98.00;;;;;;5091597;28;20028;-72
2021/09/28 16:42:45;;;;;;;4.82;1.50;;;19.00;96.90;;;;;;5092158;28;20021;-72
2021/09/28 16:45:11;;;;;;;7.40;1.70;;;18.90;97.30;;;;;;5092712;28;20043;-72
2021/09/28 16:47:37;;;;;;;3.97;1.60;;;18.90;97.40;;;;;;5091645;28;20032;-71
2021/09/28 16:50:04;;;;;;;5.65;2.13;;;19.00;97.30;;;;;;5093076;28;20024;-72
2021/09/28 16:52:29;;;;;;;5.53;1.83;;;19.00;97.40;;;;;;5092905;28;20118;-71
2021/09/28 16:54:55;;;;;;;4.65;1.45;;;19.00;98.10;;;;;;5092910;28;20442;-71
2021/09/28 16:57:21;;;;;;;6.07;1.20;;;18.70;97.70;;;;;;5092686;28;20066;-62
2021/09/28 16:59:47;;;;;;;7.15;1.30;;;18.60;98.60;;;;;;5092680;28;20040;-60
2021/09/28 17:02:13;;;;;;;2.72;1.00;;;18.50;99.30;;;;;;5092759;28;20028;-61
2021/09/28 17:04:38;;;;;;;20.55;10.77;;;18.30;99.80;;;;;;5092610;28;20048;-59
2021/09/28 17:07:04;;;;;;;15.38;2.65;;;18.20;99.90;;;;;;5091647;28;20028;-60
2021/09/28 17:09:30;;;;;;;6.30;1.65;;;18.00;99.90;;;;;;5091155;28;20492;-60
2021/09/28 17:11:56;;;;;;;4.18;1.42;;;17.80;99.90;;;;;;5092581;28;20028;-60
2021/09/28 17:14:21;;;;;;;5.60;1.70;;;17.70;99.90;;;;;;5090461;28;20469;-62
2021/09/28 17:16:48;;;;;;;4.22;1.30;;;17.70;99.90;;;;;;5074310;28;20477;-61
2021/09/28 17:19:15;;;;;;;5.78;1.52;;;17.70;99.90;;;;;;5092646;28;20041;-62
2021/09/28 17:21:41;;;;;;;5.78;1.13;;;17.70;99.90;;;;;;5091814;28;20028;-62
2021/09/28 17:24:07;;;;;;;6.18;1.17;;;17.60;99.90;;;;;;5092363;28;20086;-71
2021/09/28 17:26:36;;;;;;;2.65;1.08;;;17.50;99.90;;;;;;5090786;28;20032;-71
2021/09/28 17:29:02;;;;;;;5.05;1.45;;;17.30;99.90;;;;;;5092331;28;20092;-71
2021/09/28 17:32:08;;;;;;;5.65;1.75;;;17.10;99.90;;;;;;5090528;28;20032;-80
2021/09/28 17:34:35;;;;;;;8.45;1.48;;;17.00;99.90;;;;;;5092295;28;20036;-70
2021/09/28 17:37:02;;;;;;;4.40;1.40;;;16.90;99.90;;;;;;5089724;28;20044;-70
2021/09/28 17:39:29;;;;;;;5.80;1.50;;;16.70;99.90;;;;;;5091014;28;20031;-71
2021/09/28 17:41:55;;;;;;;4.13;1.58;;;16.80;99.90;;;;;;5082072;28;20393;-70
2021/09/28 17:44:22;;;;;;;5.30;1.70;;;16.80;99.90;;;;;;5072172;28;20028;-71
2021/09/28 17:46:51;;;;;;;5.63;1.85;;;16.90;99.90;;;;;;5070495;28;20068;-71
2021/09/28 17:49:20;;;;;;;50.35;26.02;;;16.70;99.90;;;;;;5070760;28;20115;-69
2021/09/28 17:51:49;;;;;;;9.25;4.03;;;16.90;99.90;;;;;;5072211;28;20036;-70
2021/09/28 17:54:23;;;;;;;4.50;1.63;;;16.70;99.90;;;;;;5072254;28;20047;-70
2021/09/28 17:57:07;;;;;;;7.72;2.17;;;16.50;99.90;;;;;;5072197;28;20032;-71
2021/09/28 17:59:41;;;;;;;6.40;1.40;;;16.40;99.90;;;;;;5070959;28;20078;-70
2021/09/28 18:02:10;;;;;;;5.80;1.65;;;16.40;99.90;;;;;;5070689;28;20029;-70
2021/09/28 18:04:36;;;;;;;5.82;1.90;;;16.40;99.90;;;;;;5071023;28;20353;-70
2021/09/28 18:07:03;;;;;;;15.77;8.93;;;16.30;99.90;;;;;;5071694;28;20431;-71
2021/09/28 18:09:30;;;;;;;22.35;11.23;;;16.20;99.90;;;;;;5070379;28;20513;-70
2021/09/28 18:11:56;;;;;;;13.13;4.35;;;16.40;99.90;;;;;;5071827;28;20496;-71
2021/09/28 18:14:25;;;;;;;6.68;1.95;;;16.30;99.90;;;;;;5083721;28;20027;-71
2021/09/28 18:16:52;;;;;;;5.03;1.95;;;16.30;99.90;;;;;;5073975;28;20047;-71
2021/09/28 18:19:20;;;;;;;5.43;1.50;;;16.20;99.90;;;;;;5073947;28;20032;-71
2021/09/28 18:21:51;;;;;;;7.82;2.00;;;16.30;99.90;;;;;;5090817;28;20028;-70
2021/09/28 18:24:20;;;;;;;6.50;2.58;;;16.00;99.90;;;;;;5073950;28;20032;-71